Time;durP1;ratioP1;P1;durP2;ratioP2;P2;SDS_P1;SDS_P2;PMS_P1;PMS_P2;Temp;Humidity;BMP_temperature;BMP_pressure;BME280_temperature;BME280_humidity;BME280_pressure;Samples;Min_cycle;Max_cycle;Signal;HPM_P1;HPM_P2
2024/04/06 00:01:00;;;;;;;6.30;3.10;;;;;;;19.65;47.56;102039.00;107131;1261;25431;-57
2024/04/06 00:03:27;;;;;;;5.50;2.70;;;;;;;19.65;47.60;102040.06;107091;1257;24377;-56
2024/04/06 00:05:54;;;;;;;4.50;2.70;;;;;;;19.64;47.78;102036.93;107069;1253;23160;-57
2024/04/06 00:08:21;;;;;;;6.00;2.90;;;;;;;19.63;47.72;102035.37;107080;1264;25341;-56
2024/04/06 00:10:48;;;;;;;7.00;2.60;;;;;;;19.62;47.72;102034.17;106857;1257;25347;-56
2024/04/06 00:13:16;;;;;;;5.70;3.00;;;;;;;19.61;47.85;102035.79;106875;1270;25431;-56
2024/04/06 00:15:43;;;;;;;4.00;2.60;;;;;;;19.61;48.07;102037.02;107041;1265;25379;-56
2024/04/06 00:18:10;;;;;;;4.30;2.60;;;;;;;19.58;48.28;102033.98;106928;1256;25504;-57
2024/04/06 00:20:37;;;;;;;5.30;2.20;;;;;;;19.58;48.35;102032.91;107030;1255;25347;-56
2024/04/06 00:23:04;;;;;;;4.70;2.20;;;;;;;19.57;48.56;102030.48;107123;1257;25422;-55
2024/04/06 00:25:31;;;;;;;3.40;2.40;;;;;;;19.56;48.58;102027.88;107074;1253;25351;-56
2024/04/06 00:27:58;;;;;;;3.20;2.40;;;;;;;19.55;48.75;102021.42;107120;1261;25357;-56
2024/04/06 00:30:26;;;;;;;2.00;1.90;;;;;;;19.54;48.96;102020.58;106856;1259;25421;-59
2024/04/06 00:32:53;;;;;;;3.90;2.50;;;;;;;19.53;49.21;102027.31;106946;1257;25368;-56
2024/04/06 00:35:20;;;;;;;4.10;2.60;;;;;;;19.50;49.43;102024.07;106969;1256;22535;-56
2024/04/06 00:37:49;;;;;;;3.50;2.50;;;;;;;19.44;49.57;102022.70;106852;1258;25357;-56
2024/04/06 00:40:16;;;;;;;5.50;2.50;;;;;;;19.54;49.45;102024.10;106815;1256;25380;-56
2024/04/06 00:42:44;;;;;;;3.20;2.40;;;;;;;19.54;49.47;102023.92;106745;1259;25376;-56
2024/04/06 00:45:12;;;;;;;5.40;2.30;;;;;;;19.53;49.35;102027.48;106893;1253;25376;-55
2024/04/06 00:47:39;;;;;;;5.20;3.00;;;;;;;19.53;49.43;102026.43;106815;1258;25408;-56
2024/04/06 00:50:06;;;;;;;4.40;2.50;;;;;;;19.51;49.31;102021.92;106895;1258;25376;-56
2024/04/06 00:52:33;;;;;;;5.20;2.50;;;;;;;19.50;49.36;102023.35;106783;1257;22536;-57
2024/04/06 00:55:00;;;;;;;3.90;2.50;;;;;;;19.49;49.29;102022.34;107147;1251;22539;-56
2024/04/06 00:57:27;;;;;;;4.80;2.60;;;;;;;19.48;49.35;102023.42;107222;1256;25379;-56
2024/04/06 00:59:54;;;;;;;3.20;2.10;;;;;;;19.47;49.35;102021.70;107161;1263;25491;-56
2024/04/06 01:02:21;;;;;;;5.30;2.40;;;;;;;19.38;49.51;102019.77;106940;1258;25413;-56
2024/04/06 01:04:49;;;;;;;2.30;1.90;;;;;;;19.42;49.38;102015.23;107081;1256;25514;-57
2024/04/06 01:07:16;;;;;;;3.10;2.20;;;;;;;19.43;49.32;102012.20;106947;1254;25379;-57
2024/04/06 01:09:43;;;;;;;2.90;2.00;;;;;;;19.43;49.22;102013.21;107117;1253;25373;-56
2024/04/06 01:12:09;;;;;;;2.70;1.90;;;;;;;19.42;49.19;102015.91;107103;1256;25578;-57
2024/04/06 01:14:37;;;;;;;4.30;1.90;;;;;;;19.42;49.16;102011.33;106802;1267;25373;-57
2024/04/06 01:17:04;;;;;;;4.40;2.20;;;;;;;19.43;49.05;102010.41;106943;1256;25351;-56
2024/04/06 01:19:31;;;;;;;5.50;2.40;;;;;;;19.43;49.18;102008.31;106787;1261;25360;-56
2024/04/06 01:21:58;;;;;;;4.30;1.90;;;;;;;19.40;49.20;102003.85;107084;1256;25428;-56
2024/04/06 01:24:26;;;;;;;5.20;2.20;;;;;;;19.37;49.37;102000.97;107039;1256;23353;-57
2024/04/06 01:26:54;;;;;;;4.70;2.20;;;;;;;19.38;49.42;102000.21;106906;1266;22526;-56
2024/04/06 01:29:28;;;;;;;2.50;1.60;;;;;;;19.37;49.54;101999.21;107192;1255;22649;-57
2024/04/06 01:31:56;;;;;;;6.30;2.30;;;;;;;19.35;49.77;101998.92;106939;1259;22631;-56
2024/04/06 01:34:23;;;;;;;2.20;1.80;;;;;;;19.34;49.94;101999.86;106923;1271;26643;-57
2024/04/06 01:36:49;;;;;;;2.40;1.90;;;;;;;19.33;50.02;101999.73;107085;1257;25379;-56
2024/04/06 01:39:16;;;;;;;2.90;1.60;;;;;;;19.31;50.31;101998.70;106823;1269;25396;-57
2024/04/06 01:41:47;;;;;;;2.40;1.70;;;;;;;19.31;50.37;102005.58;107056;1257;25498;-56
2024/04/06 01:44:14;;;;;;;2.60;1.70;;;;;;;19.30;50.55;102004.92;107124;1256;25582;-56
2024/04/06 01:46:42;;;;;;;2.40;1.80;;;;;;;19.31;50.56;102005.59;107097;1267;25370;-57
2024/04/06 01:49:08;;;;;;;1.90;1.60;;;;;;;19.30;50.69;102009.30;107048;1256;25485;-56
2024/04/06 01:51:35;;;;;;;1.90;1.70;;;;;;;19.30;50.69;102005.81;106078;1271;1003540;-56
2024/04/06 01:54:02;;;;;;;4.30;1.70;;;;;;;19.33;50.61;102005.86;106821;1259;25501;-56
2024/04/06 01:56:29;;;;;;;1.70;1.60;;;;;;;19.29;50.62;102006.19;107090;1258;25469;-56
2024/04/06 01:58:56;;;;;;;2.10;1.30;;;;;;;19.32;50.60;102004.85;106916;1259;25379;-56
2024/04/06 02:01:23;;;;;;;1.90;1.30;;;;;;;19.29;50.57;102003.20;106830;1274;25501;-56
2024/04/06 02:03:50;;;;;;;1.40;1.30;;;;;;;19.28;50.57;102005.17;106825;1267;25362;-56
2024/04/06 02:06:18;;;;;;;1.80;1.30;;;;;;;19.27;50.58;102005.73;107122;1259;25460;-56
2024/04/06 02:08:46;;;;;;;1.50;1.40;;;;;;;19.24;50.60;102006.02;106394;1265;1003008;-56
2024/04/06 02:11:13;;;;;;;1.90;1.60;;;;;;;19.25;50.50;102003.70;106818;1258;25354;-56
2024/04/06 02:13:40;;;;;;;3.70;1.70;;;;;;;19.22;50.36;102004.86;107133;1256;25364;-56
2024/04/06 02:16:07;;;;;;;3.20;1.50;;;;;;;19.19;50.40;102003.06;107112;1252;25428;-56
2024/04/06 02:18:34;;;;;;;3.10;2.10;;;;;;;19.15;50.42;102004.60;107198;1252;25351;-56
2024/04/06 02:21:01;;;;;;;3.30;2.00;;;;;;;19.11;50.49;102001.06;107147;1259;25351;-57
2024/04/06 02:23:28;;;;;;;2.70;1.60;;;;;;;19.03;50.67;101997.50;107090;1266;25352;-59
2024/04/06 02:25:55;;;;;;;4.10;2.10;;;;;;;19.00;50.85;102003.60;107096;1253;25351;-56
2024/04/06 02:28:22;;;;;;;2.10;1.80;;;;;;;18.96;50.93;102004.98;107132;1252;25501;-56
2024/04/06 02:30:53;;;;;;;2.40;1.80;;;;;;;18.93;50.97;102003.52;107165;1268;26525;-56
2024/04/06 02:33:20;;;;;;;4.40;2.00;;;;;;;18.96;50.88;102000.94;107126;1267;25900;-56
2024/04/06 02:35:47;;;;;;;2.20;1.70;;;;;;;18.93;50.95;101997.70;107067;1267;25379;-57
2024/04/06 02:38:14;;;;;;;3.10;1.90;;;;;;;18.90;50.96;101998.16;106759;1267;25357;-57
2024/04/06 02:40:41;;;;;;;3.50;2.10;;;;;;;18.87;50.76;101998.80;106746;1269;25464;-57
2024/04/06 02:43:08;;;;;;;2.80;2.10;;;;;;;18.84;50.78;101998.91;107066;1267;25366;-57
2024/04/06 02:45:36;;;;;;;2.30;1.90;;;;;;;18.80;50.90;101991.68;106274;1269;1003470;-56
2024/04/06 02:48:05;;;;;;;2.80;2.00;;;;;;;18.77;51.00;101990.05;107080;1270;25392;-56
2024/04/06 02:50:32;;;;;;;3.30;2.60;;;;;;;18.74;50.86;101991.37;106719;1269;24216;-57
2024/04/06 02:52:59;;;;;;;3.20;2.00;;;;;;;18.72;50.81;101987.42;106926;1269;25484;-57
2024/04/06 02:55:26;;;;;;;3.30;2.10;;;;;;;18.69;50.87;101990.86;106762;1268;25414;-57
2024/04/06 02:57:53;;;;;;;2.50;1.90;;;;;;;18.66;50.84;101989.90;107082;1267;23383;-56
2024/04/06 03:00:20;;;;;;;2.40;2.10;;;;;;;18.64;50.68;101995.96;106826;1274;23277;-56
2024/04/06 03:02:48;;;;;;;2.20;1.70;;;;;;;18.60;50.72;101996.61;107198;1272;25330;-56
2024/04/06 03:05:16;;;;;;;3.50;2.20;;;;;;;18.57;50.63;101996.21;107161;1268;25558;-56
2024/04/06 03:07:44;;;;;;;2.20;1.80;;;;;;;18.53;50.58;101993.70;107242;1267;25373;-57
2024/04/06 03:10:11;;;;;;;3.40;2.10;;;;;;;18.50;50.69;101994.87;106822;1272;25536;-57
2024/04/06 03:12:39;;;;;;;2.40;2.20;;;;;;;18.47;50.81;101992.17;107220;1269;25418;-56
2024/04/06 03:15:06;;;;;;;3.70;2.40;;;;;;;18.43;50.82;101993.17;107040;1271;25355;-56
2024/04/06 03:17:35;;;;;;;3.40;2.00;;;;;;;18.40;50.86;101999.42;107168;1269;25486;-56
2024/04/06 03:20:04;;;;;;;3.20;2.80;;;;;;;18.35;50.86;101998.19;107084;1267;25406;-56
2024/04/06 03:22:31;;;;;;;2.40;2.10;;;;;;;18.34;50.83;101997.67;107145;1269;22536;-56
2024/04/06 03:24:59;;;;;;;2.30;2.00;;;;;;;18.34;50.79;102003.67;106913;1269;25388;-57
2024/04/06 03:27:26;;;;;;;6.00;2.30;;;;;;;18.32;50.75;102003.75;107069;1267;25385;-57
2024/04/06 03:29:53;;;;;;;6.60;3.00;;;;;;;18.28;50.65;102008.77;107204;1269;25537;-56
2024/04/06 03:32:20;;;;;;;5.70;2.80;;;;;;;18.25;50.74;102012.21;107104;1267;25498;-57
2024/04/06 03:34:47;;;;;;;5.40;3.20;;;;;;;18.22;51.00;102011.27;106811;1253;25369;-56
2024/04/06 03:37:14;;;;;;;4.50;2.70;;;;;;;18.20;51.08;102012.94;106861;1258;23344;-56
2024/04/06 03:39:41;;;;;;;4.30;2.70;;;;;;;18.16;51.29;102010.77;106749;1265;25354;-57
2024/04/06 03:42:08;;;;;;;3.20;2.40;;;;;;;18.14;51.26;102009.60;106494;1268;25450;-57
2024/04/06 03:44:35;;;;;;;3.30;2.30;;;;;;;18.12;51.25;102011.42;106936;1259;25500;-56
2024/04/06 03:47:02;;;;;;;2.40;2.10;;;;;;;18.09;51.19;102008.88;107237;1256;25351;-57
2024/04/06 03:49:30;;;;;;;3.80;2.60;;;;;;;18.07;51.23;102009.50;107108;1256;25498;-57
2024/04/06 03:51:57;;;;;;;4.90;2.70;;;;;;;18.06;51.40;102004.96;110592;1265;22159;-55
2024/04/06 03:54:23;;;;;;;4.60;2.70;;;;;;;18.05;51.48;102006.58;110620;1263;22244;-56
2024/04/06 03:56:50;;;;;;;4.80;2.50;;;;;;;18.05;51.58;102006.41;110567;1263;22393;-55
2024/04/06 03:59:17;;;;;;;3.90;2.40;;;;;;;18.05;51.77;102007.79;110619;1256;22164;-55
2024/04/06 04:01:44;;;;;;;4.80;2.60;;;;;;;18.06;51.91;102010.39;110618;1264;22428;-55
2024/04/06 04:04:10;;;;;;;2.40;1.90;;;;;;;18.08;52.08;102005.23;110592;1256;22207;-55
2024/04/06 04:06:37;;;;;;;1.90;1.70;;;;;;;18.11;52.18;102004.63;110654;1256;22133;-56
2024/04/06 04:09:06;;;;;;;2.80;1.60;;;;;;;18.14;52.15;102001.90;110619;1256;22931;-55
2024/04/06 04:11:32;;;;;;;2.50;1.70;;;;;;;18.15;52.14;102000.44;110584;1262;22387;-56
2024/04/06 04:13:59;;;;;;;2.50;1.60;;;;;;;18.04;52.55;101998.86;110594;1256;22267;-55
2024/04/06 04:16:26;;;;;;;3.30;1.30;;;;;;;18.04;52.67;101997.46;110438;1258;22361;-55
2024/04/06 04:18:53;;;;;;;2.20;1.70;;;;;;;18.06;52.77;101997.39;110612;1256;22270;-55
2024/04/06 04:21:19;;;;;;;1.80;1.50;;;;;;;18.09;52.83;102002.75;110573;1256;23059;-55
2024/04/06 04:23:46;;;;;;;2.00;1.30;;;;;;;18.14;52.79;102002.06;110554;1256;22324;-55
2024/04/06 04:26:15;;;;;;;1.80;1.60;;;;;;;18.17;52.74;102002.30;110606;1261;22280;-55
2024/04/06 04:28:42;;;;;;;1.20;1.10;;;;;;;18.20;52.81;102006.75;110266;1265;22346;-56
2024/04/06 04:31:13;;;;;;;3.50;1.60;;;;;;;18.24;52.79;102006.45;110628;1256;22146;-55
2024/04/06 04:33:40;;;;;;;1.70;1.10;;;;;;;18.29;52.56;102004.71;110627;1265;22148;-55
2024/04/06 04:36:08;;;;;;;4.00;1.50;;;;;;;18.33;52.51;102005.47;110407;1266;22433;-55
2024/04/06 04:38:34;;;;;;;2.80;1.20;;;;;;;18.36;52.57;102003.59;110448;1259;22975;-56
2024/04/06 04:41:02;;;;;;;1.10;1.00;;;;;;;18.40;52.46;101999.59;110607;1256;22371;-55
2024/04/06 04:43:30;;;;;;;1.70;1.10;;;;;;;18.44;52.31;102005.45;110592;1256;22680;-56
2024/04/06 04:45:57;;;;;;;3.00;1.30;;;;;;;18.47;52.34;102008.85;110543;1263;22161;-55
2024/04/06 04:48:23;;;;;;;1.30;1.20;;;;;;;18.50;52.26;102014.70;110597;1264;22180;-56
2024/04/06 04:50:50;;;;;;;1.60;1.10;;;;;;;18.54;52.21;102016.69;110625;1255;23231;-55
2024/04/06 04:53:17;;;;;;;3.40;1.30;;;;;;;18.57;52.28;102020.98;110572;1257;22297;-56
2024/04/06 04:55:44;;;;;;;2.20;1.00;;;;;;;18.59;52.37;102022.12;110565;1256;23212;-56
2024/04/06 04:58:11;;;;;;;1.90;1.20;;;;;;;18.62;52.43;102021.68;110299;1257;22257;-56
2024/04/06 05:00:37;;;;;;;1.30;1.20;;;;;;;18.65;52.37;102019.98;110638;1263;22422;-56
2024/04/06 05:03:04;;;;;;;1.80;1.40;;;;;;;18.68;52.46;102019.71;110637;1256;22247;-56
2024/04/06 05:05:31;;;;;;;2.50;1.10;;;;;;;18.71;52.55;102022.94;110436;1266;22369;-55
2024/04/06 05:07:58;;;;;;;1.50;1.40;;;;;;;18.74;52.61;102025.83;110617;1264;22180;-55
2024/04/06 05:10:24;;;;;;;1.90;1.60;;;;;;;18.79;52.66;102026.37;110661;1256;22469;-56
2024/04/06 05:12:51;;;;;;;1.90;1.50;;;;;;;18.83;52.64;102032.88;110607;1262;22277;-56
2024/04/06 05:15:18;;;;;;;2.10;1.50;;;;;;;18.86;52.55;102031.73;110419;1259;22252;-56
2024/04/06 05:17:45;;;;;;;2.60;1.40;;;;;;;18.87;52.47;102032.73;110585;1257;22310;-56
2024/04/06 05:20:11;;;;;;;1.80;1.40;;;;;;;18.89;52.49;102028.63;110658;1256;22264;-55
2024/04/06 05:22:38;;;;;;;2.50;1.70;;;;;;;18.92;52.45;102030.46;110243;1260;22115;-56
2024/04/06 05:25:05;;;;;;;2.70;1.80;;;;;;;18.95;52.35;102035.08;110565;1255;22461;-56
2024/04/06 05:27:32;;;;;;;2.60;1.60;;;;;;;19.01;52.34;102035.93;109094;1262;1002369;-56
2024/04/06 05:29:59;;;;;;;2.60;1.60;;;;;;;19.06;52.46;102035.71;110617;1259;22795;-56
2024/04/06 05:32:25;;;;;;;2.00;1.50;;;;;;;19.12;52.36;102040.08;110582;1271;22355;-56
2024/04/06 05:34:52;;;;;;;1.50;1.40;;;;;;;19.19;52.30;102036.67;110599;1255;22400;-56
2024/04/06 05:37:20;;;;;;;2.40;1.60;;;;;;;19.24;52.05;102037.36;110198;1260;22259;-56
2024/04/06 05:39:47;;;;;;;1.90;1.50;;;;;;;19.29;52.06;102036.98;110515;1258;22478;-56
2024/04/06 05:42:13;;;;;;;1.40;1.30;;;;;;;19.33;51.79;102041.77;110592;1256;22271;-56
2024/04/06 05:44:40;;;;;;;4.50;1.50;;;;;;;19.47;51.62;102042.65;110607;1252;22079;-56
2024/04/06 05:47:07;;;;;;;5.10;1.40;;;;;;;19.64;51.23;102046.79;110310;1261;22096;-56
2024/04/06 05:49:34;;;;;;;2.50;1.80;;;;;;;19.75;51.11;102047.55;110616;1256;23145;-55
2024/04/06 05:52:01;;;;;;;1.90;1.70;;;;;;;19.92;50.98;102047.23;110583;1263;22360;-55
2024/04/06 05:54:28;;;;;;;1.50;1.30;;;;;;;20.15;50.82;102048.59;110429;1270;22177;-56
2024/04/06 05:56:54;;;;;;;1.50;1.20;;;;;;;20.43;50.26;102051.98;110555;1256;22355;-56
2024/04/06 05:59:21;;;;;;;1.20;1.10;;;;;;;20.73;49.35;102052.45;110562;1255;22286;-56
2024/04/06 06:01:48;;;;;;;5.30;1.30;;;;;;;21.01;48.51;102051.93;110213;1263;22115;-56
2024/04/06 06:04:15;;;;;;;1.30;1.20;;;;;;;21.28;47.93;102051.81;110628;1255;22447;-56
2024/04/06 06:06:42;;;;;;;2.50;1.20;;;;;;;21.56;47.39;102049.75;110594;1263;22200;-56
2024/04/06 06:09:08;;;;;;;1.50;1.10;;;;;;;21.86;46.86;102046.41;110580;1262;22111;-56
2024/04/06 06:11:35;;;;;;;4.50;1.40;;;;;;;22.15;46.12;102046.05;110601;1263;23090;-56
2024/04/06 06:14:02;;;;;;;2.60;1.10;;;;;;;22.38;45.59;102044.67;110592;1269;22324;-56
2024/04/06 06:16:29;;;;;;;1.70;1.20;;;;;;;22.66;44.97;102048.95;110611;1265;22133;-56
2024/04/06 06:18:55;;;;;;;1.30;1.00;;;;;;;23.00;44.40;102048.41;110254;1273;22132;-56
2024/04/06 06:21:22;;;;;;;1.70;1.00;;;;;;;23.35;43.55;102052.52;110395;1257;22294;-56
2024/04/06 06:23:49;;;;;;;1.50;1.20;;;;;;;23.68;42.82;102049.96;110226;1259;22874;-56
2024/04/06 06:26:16;;;;;;;1.70;1.00;;;;;;;23.92;42.02;102048.75;110612;1265;22653;-56
2024/04/06 06:28:42;;;;;;;1.60;1.00;;;;;;;24.07;41.62;102049.50;110585;1255;22190;-56
2024/04/06 06:31:09;;;;;;;1.10;1.00;;;;;;;24.17;41.32;102051.55;110572;1255;22449;-56
2024/04/06 06:33:36;;;;;;;1.40;1.30;;;;;;;24.29;41.13;102057.14;110569;1270;22522;-56
2024/04/06 06:36:03;;;;;;;1.10;1.00;;;;;;;24.38;41.03;102063.36;110566;1265;22198;-56
2024/04/06 06:38:33;;;;;;;1.80;0.90;;;;;;;24.49;40.82;102066.91;110570;1266;23051;-56
2024/04/06 06:41:20;;;;;;;1.60;1.00;;;;;;;24.62;40.51;102063.33;110615;1255;22409;-56
2024/04/06 06:43:47;;;;;;;1.60;0.80;;;;;;;24.70;40.65;102056.23;110339;1259;22556;-57
2024/04/06 06:46:14;;;;;;;1.20;0.70;;;;;;;24.87;40.33;102054.36;110582;1265;22422;-57
2024/04/06 06:48:41;;;;;;;1.40;1.00;;;;;;;25.11;39.97;102053.73;110614;1263;22454;-57
2024/04/06 06:51:08;;;;;;;0.90;0.80;;;;;;;25.32;39.49;102051.33;110613;1256;23078;-56
2024/04/06 06:53:35;;;;;;;1.70;1.10;;;;;;;25.42;39.12;102048.95;110582;1267;23170;-57
2024/04/06 06:56:02;;;;;;;1.50;0.90;;;;;;;25.43;38.94;102052.77;110644;1265;22281;-56
2024/04/06 06:58:29;;;;;;;2.70;1.10;;;;;;;25.36;38.84;102055.56;110535;1259;22284;-56
2024/04/06 07:00:55;;;;;;;1.00;0.80;;;;;;;25.18;38.90;102058.30;110590;1256;22205;-56
2024/04/06 07:03:22;;;;;;;2.20;0.80;;;;;;;24.97;39.07;102059.25;110607;1257;22465;-56
2024/04/06 07:05:49;;;;;;;1.00;0.90;;;;;;;24.77;39.48;102061.39;110612;1256;22279;-56
2024/04/06 07:08:15;;;;;;;1.20;0.80;;;;;;;24.60;39.86;102061.10;110568;1265;22093;-56
2024/04/06 07:10:43;;;;;;;1.30;1.00;;;;;;;24.38;40.37;102059.09;110566;1271;22400;-56
2024/04/06 07:13:09;;;;;;;1.80;1.00;;;;;;;24.19;40.76;102053.94;110585;1256;22265;-56
2024/04/06 07:15:37;;;;;;;3.60;1.00;;;;;;;24.05;41.01;102057.96;110529;1264;23161;-56
2024/04/06 07:18:04;;;;;;;1.60;1.20;;;;;;;24.03;41.33;102058.98;110693;1264;22877;-56
2024/04/06 07:20:31;;;;;;;1.40;0.90;;;;;;;23.92;41.27;102054.10;110602;1256;22319;-56
2024/04/06 07:22:57;;;;;;;1.10;1.00;;;;;;;23.80;41.65;102058.15;110565;1267;22397;-56
2024/04/06 07:25:24;;;;;;;1.30;1.00;;;;;;;23.68;42.06;102056.91;110566;1257;23000;-56
2024/04/06 07:27:51;;;;;;;1.80;0.90;;;;;;;23.56;42.40;102058.08;110242;1274;22160;-56
2024/04/06 07:30:18;;;;;;;2.30;1.10;;;;;;;23.46;42.64;102056.55;106739;1263;1002995;-56
2024/04/06 07:32:45;;;;;;;2.10;1.80;;;;;;;23.34;43.00;102053.07;110568;1261;23130;-56
2024/04/06 07:35:12;;;;;;;2.40;1.90;;;;;;;23.25;43.13;102051.27;110611;1267;22273;-56
2024/04/06 07:37:39;;;;;;;3.10;2.00;;;;;;;23.16;43.33;102054.41;110616;1266;22390;-56
2024/04/06 07:40:06;;;;;;;13.10;2.90;;;;;;;23.07;43.67;102055.44;110541;1256;22747;-56
2024/04/06 07:42:33;;;;;;;2.10;1.80;;;;;;;23.00;44.09;102055.83;110604;1256;22766;-56
2024/04/06 07:45:00;;;;;;;2.80;2.40;;;;;;;22.94;44.35;102055.80;110526;1257;22470;-56
2024/04/06 07:47:28;;;;;;;4.60;3.00;;;;;;;22.90;44.55;102051.59;110561;1256;23041;-56
2024/04/06 07:49:55;;;;;;;3.50;3.20;;;;;;;22.89;44.76;102049.52;110559;1272;22432;-56
2024/04/06 07:52:22;;;;;;;6.80;3.60;;;;;;;22.89;44.75;102048.80;110397;1260;22105;-56
2024/04/06 07:54:50;;;;;;;5.00;4.50;;;;;;;22.88;44.79;102049.73;110578;1256;22251;-56
2024/04/06 07:57:16;;;;;;;5.20;4.60;;;;;;;22.87;44.87;102048.02;110314;1269;22227;-56
2024/04/06 07:59:44;;;;;;;5.60;4.90;;;;;;;22.86;44.88;102046.83;110496;1272;22332;-56
2024/04/06 08:02:10;;;;;;;6.40;4.70;;;;;;;22.85;44.95;102055.41;110580;1256;22198;-56
2024/04/06 08:04:37;;;;;;;7.70;5.00;;;;;;;22.83;45.03;102055.33;110631;1256;22248;-56
2024/04/06 08:07:06;;;;;;;4.80;4.10;;;;;;;22.86;44.80;102053.02;110367;1269;22562;-56
2024/04/06 08:09:35;;;;;;;4.40;3.60;;;;;;;22.85;44.75;102055.38;110565;1267;22499;-56
2024/04/06 08:12:02;;;;;;;3.60;3.10;;;;;;;22.76;44.79;102051.98;110521;1269;22186;-56
2024/04/06 08:14:29;;;;;;;4.40;3.50;;;;;;;22.72;44.86;102050.08;110358;1260;22327;-56
2024/04/06 08:16:56;;;;;;;4.70;3.90;;;;;;;22.71;44.88;102051.03;110572;1251;22114;-56
2024/04/06 08:19:23;;;;;;;4.30;3.60;;;;;;;22.68;44.90;102046.94;110613;1256;22347;-56
2024/04/06 08:21:49;;;;;;;3.30;3.00;;;;;;;22.66;45.17;102040.46;110531;1274;22402;-56
2024/04/06 08:24:17;;;;;;;3.80;3.30;;;;;;;22.64;44.88;102044.95;110501;1274;22209;-56
2024/04/06 08:26:47;;;;;;;3.00;2.70;;;;;;;22.63;44.88;102044.98;110636;1257;23218;-56
2024/04/06 08:29:14;;;;;;;2.20;2.00;;;;;;;22.66;45.07;102045.23;110566;1267;23132;-56
2024/04/06 08:31:40;;;;;;;3.00;2.50;;;;;;;22.72;44.99;102045.10;110540;1251;22390;-56
2024/04/06 08:34:07;;;;;;;2.90;2.50;;;;;;;22.76;44.68;102041.01;110224;1275;22429;-56
2024/04/06 08:36:35;;;;;;;3.00;2.70;;;;;;;22.77;44.49;102037.77;110392;1273;22477;-56
2024/04/06 08:39:04;;;;;;;2.30;2.10;;;;;;;22.72;44.47;102033.61;110553;1274;22394;-56
2024/04/06 08:41:30;;;;;;;2.90;2.10;;;;;;;22.68;44.31;102034.01;110522;1274;22297;-56
2024/04/06 08:43:58;;;;;;;1.90;1.80;;;;;;;22.63;44.43;102033.48;110432;1270;22080;-56
2024/04/06 08:46:25;;;;;;;2.20;2.00;;;;;;;22.60;44.36;102031.88;110545;1267;22464;-56
2024/04/06 08:48:52;;;;;;;2.40;2.20;;;;;;;22.58;44.22;102029.70;110558;1256;22303;-56
2024/04/06 08:51:20;;;;;;;2.00;1.90;;;;;;;22.53;44.20;102027.80;110512;1270;22397;-56
2024/04/06 08:53:47;;;;;;;2.20;2.00;;;;;;;22.46;44.20;102029.23;110523;1274;22468;-56
2024/04/06 08:56:15;;;;;;;2.80;2.60;;;;;;;22.37;44.29;102028.30;110537;1274;22171;-56
2024/04/06 08:58:42;;;;;;;3.10;2.90;;;;;;;22.25;44.58;102025.03;110425;1272;22128;-56
2024/04/06 09:01:12;;;;;;;2.50;2.10;;;;;;;22.16;45.00;102023.92;110412;1270;22123;-56
2024/04/06 09:03:39;;;;;;;1.80;1.70;;;;;;;22.06;45.40;102023.71;110388;1274;22370;-56
2024/04/06 09:06:19;;;;;;;2.30;2.10;;;;;;;22.08;45.44;102027.80;110201;1274;22189;-55
2024/04/06 09:08:46;;;;;;;3.00;2.10;;;;;;;22.10;45.51;102025.23;110545;1266;22430;-56
2024/04/06 09:11:13;;;;;;;2.10;1.90;;;;;;;22.14;45.41;102024.36;110584;1267;22098;-56
2024/04/06 09:13:40;;;;;;;2.20;2.00;;;;;;;22.18;45.42;102023.07;110579;1267;23173;-55
2024/04/06 09:16:10;;;;;;;2.20;2.00;;;;;;;22.22;45.30;102022.68;110503;1273;22496;-56
2024/04/06 09:18:38;;;;;;;2.00;1.80;;;;;;;22.26;45.05;102025.48;110581;1267;23085;-56
2024/04/06 09:21:05;;;;;;;1.80;1.70;;;;;;;22.27;44.84;102020.83;110524;1267;22150;-56
2024/04/06 09:23:32;;;;;;;2.00;1.90;;;;;;;22.27;44.67;102015.02;110575;1274;22614;-56
2024/04/06 09:26:00;;;;;;;1.90;1.80;;;;;;;22.23;44.76;102014.71;110335;1273;22395;-56
2024/04/06 09:28:27;;;;;;;2.20;2.00;;;;;;;22.19;44.88;102010.15;110170;1267;22154;-56
2024/04/06 09:30:56;;;;;;;1.70;1.60;;;;;;;22.15;45.00;102011.57;110538;1267;23183;-56
2024/04/06 09:33:24;;;;;;;2.30;2.00;;;;;;;22.13;45.05;102013.98;110407;1273;22807;-56
2024/04/06 09:35:51;;;;;;;2.40;2.20;;;;;;;22.11;45.29;102006.29;110572;1270;22192;-56
2024/04/06 09:38:18;;;;;;;2.20;2.00;;;;;;;22.11;45.52;102002.60;110544;1272;22982;-56
2024/04/06 09:40:47;;;;;;;2.50;2.30;;;;;;;22.15;45.39;101997.11;110537;1272;22375;-56
2024/04/06 09:43:15;;;;;;;2.20;2.00;;;;;;;22.21;45.32;101997.31;110536;1267;22322;-56
2024/04/06 09:45:42;;;;;;;2.50;2.30;;;;;;;22.27;45.17;102000.34;110536;1274;22403;-56
2024/04/06 09:48:10;;;;;;;2.40;2.20;;;;;;;22.31;44.92;101997.86;110550;1274;22173;-56
2024/04/06 09:50:38;;;;;;;2.80;2.60;;;;;;;22.32;45.18;101994.80;110523;1274;22374;-56
2024/04/06 09:53:05;;;;;;;2.70;2.40;;;;;;;22.34;44.92;101992.89;110516;1270;22279;-56
2024/04/06 09:55:34;;;;;;;2.90;2.60;;;;;;;22.37;44.84;101985.15;109782;1274;1002482;-56
2024/04/06 09:58:01;;;;;;;3.50;2.60;;;;;;;22.38;44.78;101980.83;110568;1267;22523;-56
2024/04/06 10:00:28;;;;;;;3.00;2.80;;;;;;;22.38;44.92;101980.70;110118;1274;22349;-56
2024/04/06 10:02:55;;;;;;;2.90;2.60;;;;;;;22.35;44.96;101980.66;110539;1274;22298;-56
2024/04/06 10:05:23;;;;;;;2.60;2.40;;;;;;;22.32;44.95;101978.15;110556;1274;22402;-56
2024/04/06 10:07:50;;;;;;;4.10;2.80;;;;;;;22.30;44.98;101979.70;110512;1274;22938;-56
2024/04/06 10:10:18;;;;;;;2.70;2.50;;;;;;;22.28;45.23;101978.91;110434;1273;22410;-56
2024/04/06 10:12:46;;;;;;;3.00;2.50;;;;;;;22.27;45.21;101973.66;110519;1274;23123;-56
2024/04/06 10:15:14;;;;;;;2.60;2.40;;;;;;;22.28;45.46;101973.79;108989;1267;1002969;-56
2024/04/06 10:17:42;;;;;;;2.30;2.00;;;;;;;22.30;45.27;101974.20;110435;1269;22777;-56
2024/04/06 10:20:10;;;;;;;2.60;2.40;;;;;;;22.33;45.12;101969.24;110515;1267;22501;-56
2024/04/06 10:22:50;;;;;;;1.80;1.70;;;;;;;22.37;45.24;101970.09;110422;1270;23236;-56
2024/04/06 10:25:23;;;;;;;2.10;2.00;;;;;;;22.40;44.85;101967.66;110476;1269;22525;-56
2024/04/06 10:27:58;;;;;;;2.10;1.90;;;;;;;22.41;44.71;101961.80;110476;1274;22122;-56
2024/04/06 10:30:25;;;;;;;2.20;2.00;;;;;;;22.39;44.56;101955.34;110529;1274;22525;-56
2024/04/06 10:32:53;;;;;;;1.80;1.70;;;;;;;22.35;44.76;101953.27;110540;1274;22128;-56
2024/04/06 10:35:19;;;;;;;1.90;1.70;;;;;;;22.34;44.79;101949.23;110191;1274;22524;-56
2024/04/06 10:37:47;;;;;;;1.70;1.60;;;;;;;22.35;44.73;101951.33;110508;1274;22400;-56
2024/04/06 10:40:14;;;;;;;1.50;1.40;;;;;;;22.34;44.60;101950.64;110530;1272;23002;-56
2024/04/06 10:42:41;;;;;;;1.70;1.60;;;;;;;22.33;44.60;101945.56;110519;1271;22340;-55
2024/04/06 10:45:10;;;;;;;1.70;1.60;;;;;;;22.30;44.70;101939.20;110402;1274;22278;-56
2024/04/06 10:47:38;;;;;;;2.30;2.10;;;;;;;22.27;44.74;101935.80;110538;1267;22397;-56
2024/04/06 10:50:08;;;;;;;1.90;1.80;;;;;;;22.26;44.90;101933.77;110523;1274;22430;-56
2024/04/06 10:52:36;;;;;;;2.30;2.10;;;;;;;22.27;44.99;101928.23;110505;1263;22300;-56
2024/04/06 10:55:09;;;;;;;2.40;2.20;;;;;;;22.31;44.94;101925.36;110563;1267;22260;-56
2024/04/06 10:57:37;;;;;;;2.10;1.90;;;;;;;22.35;44.99;101927.65;110356;1270;240671;-56
2024/04/06 11:00:15;;;;;;;2.30;2.10;;;;;;;22.38;44.77;101926.74;110520;1274;22233;-56
2024/04/06 11:02:42;;;;;;;2.10;1.90;;;;;;;22.36;44.66;101926.70;110295;1273;22530;-56
2024/04/06 11:05:09;;;;;;;2.40;2.20;;;;;;;22.32;44.58;101920.55;110563;1267;22315;-56
2024/04/06 11:07:40;;;;;;;2.20;2.00;;;;;;;22.28;44.81;101918.13;110501;1274;23970;-55
2024/04/06 11:10:09;;;;;;;2.60;2.40;;;;;;;22.23;44.85;101912.70;110496;1267;22156;-56
2024/04/06 11:12:37;;;;;;;3.00;2.70;;;;;;;22.22;44.81;101915.06;110549;1274;22345;-55
2024/04/06 11:15:07;;;;;;;3.10;2.80;;;;;;;22.21;44.88;101912.48;110566;1274;22220;-56
2024/04/06 11:17:35;;;;;;;3.50;3.20;;;;;;;22.18;45.15;101902.89;110218;1274;22792;-56